OPRS weather

Risalpur Air Base
Risalpur, North-West Frontier, Pakistan

Public forecast

Using degrees Celsius for public forecast. Weather courtesy of forecast.io.

METAR (pilot weather report)

Closest report is Peshawar International Airport, 23.4 nm (43.3 km) WSW. Retrieved 2019/08/21 19:30 UTC (0 seconds ago):

OPPS 211930Z 05004KT 6000 HZ FEW045 FEW110 29/22 Q1003

TAF (pilot weather forecast)

Closest forecast is Peshawar International Airport, 23.4 nm (43.3 km) WSW. Retrieved 2019/08/21 18:00 UTC (1 hour ago):

TAF OPPS 211525Z 2118/2224 31015KT 5000 HZ FEW040 SCT100 TEMPO 2209/2212 VCTS FEW030TCU SCT040 BKN100 TEMPO 2218/2221 VCTS FEW030CB SCT040 BKN100